createdAt,value
2022-07-29T00:02:18.244Z,11.03
2022-07-29T00:04:45.127Z,11.01
2022-07-29T00:07:12.045Z,10.99
2022-07-29T00:09:42.960Z,10.96
2022-07-29T00:12:25.184Z,10.89
2022-07-29T00:14:54.585Z,10.96
2022-07-29T00:17:21.450Z,10.96
2022-07-29T00:19:48.375Z,10.93
2022-07-29T00:22:15.312Z,10.92
2022-07-29T00:24:42.344Z,10.91
2022-07-29T00:27:09.182Z,10.91
2022-07-29T00:29:36.083Z,10.86
2022-07-29T00:32:03.941Z,10.86
2022-07-29T00:34:50.749Z,10.81
2022-07-29T00:37:17.673Z,10.73
2022-07-29T00:39:44.743Z,10.67
2022-07-29T00:42:11.783Z,10.60
2022-07-29T00:44:42.292Z,10.54
2022-07-29T00:47:10.095Z,10.52
2022-07-29T00:49:37.673Z,10.50
2022-07-29T00:52:05.951Z,10.39
2022-07-29T00:54:34.183Z,10.45
2022-07-29T00:57:01.670Z,10.44
2022-07-29T00:59:34.764Z,10.40
2022-07-29T01:02:03.730Z,10.44
2022-07-29T01:04:31.378Z,10.42
2022-07-29T01:06:58.284Z,10.45
2022-07-29T01:09:37.321Z,10.42
2022-07-29T01:12:17.775Z,10.32
2022-07-29T01:14:44.805Z,10.43
2022-07-29T01:17:31.864Z,10.36
2022-07-29T01:20:17.525Z,10.27
2022-07-29T01:23:21.457Z,10.28
2022-07-29T01:26:20.287Z,10.27
2022-07-29T01:29:13.885Z,10.30
2022-07-29T01:32:01.140Z,10.33
2022-07-29T01:34:46.595Z,10.33
2022-07-29T01:37:27.717Z,10.27
2022-07-29T01:39:56.649Z,10.24
2022-07-29T01:42:23.513Z,10.15
2022-07-29T01:45:22.401Z,10.10
2022-07-29T01:48:02.972Z,10.20
2022-07-29T01:50:36.080Z,10.19
2022-07-29T01:53:07.407Z,10.20
2022-07-29T01:55:38.049Z,10.10
2022-07-29T01:58:06.446Z,10.07
2022-07-29T02:00:33.570Z,10.11
2022-07-29T02:03:01.846Z,10.08
2022-07-29T02:05:28.898Z,10.01
2022-07-29T02:07:56.067Z,10.08
2022-07-29T02:10:25.980Z,10.04
2022-07-29T02:12:52.987Z,10.08
2022-07-29T02:15:19.918Z,9.98
2022-07-29T02:17:56.250Z,9.89
2022-07-29T02:20:23.853Z,9.96
2022-07-29T02:22:50.763Z,10.01
2022-07-29T02:25:17.769Z,10.05
2022-07-29T02:27:44.541Z,10.09
2022-07-29T02:30:12.580Z,10.12
2022-07-29T02:32:40.349Z,10.10
2022-07-29T02:35:08.263Z,10.02
2022-07-29T02:37:35.169Z,9.98
2022-07-29T02:40:02.049Z,10.01
2022-07-29T02:42:28.935Z,9.91
2022-07-29T02:44:56.484Z,9.87
2022-07-29T02:47:25.147Z,9.83
2022-07-29T02:50:07.943Z,9.79
2022-07-29T02:52:51.008Z,9.83
2022-07-29T02:55:31.885Z,9.89
2022-07-29T02:58:09.087Z,9.99
2022-07-29T03:00:37.967Z,10.18
2022-07-29T03:03:05.750Z,10.30
2022-07-29T03:05:32.629Z,10.37
2022-07-29T03:08:02.145Z,10.57
2022-07-29T03:10:29.060Z,10.65
2022-07-29T03:12:56.695Z,10.73
2022-07-29T03:15:24.750Z,10.72
2022-07-29T03:17:52.308Z,10.67
2022-07-29T03:20:19.424Z,10.74
2022-07-29T03:22:49.399Z,10.66
2022-07-29T03:25:17.864Z,10.75
2022-07-29T03:27:44.902Z,10.84
2022-07-29T03:30:12.577Z,10.95
2022-07-29T03:32:45.028Z,10.98
2022-07-29T03:35:12.104Z,11.14
2022-07-29T03:37:39.037Z,11.30
2022-07-29T03:40:08.618Z,11.47
2022-07-29T03:42:38.041Z,11.67
2022-07-29T03:45:07.806Z,11.87
2022-07-29T03:47:50.148Z,12.01
2022-07-29T03:50:19.264Z,12.22
2022-07-29T03:52:46.751Z,12.53
2022-07-29T03:55:13.728Z,13.07
2022-07-29T03:57:41.251Z,13.39
2022-07-29T04:00:09.226Z,13.44
2022-07-29T04:02:36.561Z,13.54
2022-07-29T04:05:03.666Z,14.01
2022-07-29T04:07:30.861Z,14.63
2022-07-29T04:09:57.764Z,15.16
2022-07-29T04:12:24.952Z,15.09
2022-07-29T04:14:51.997Z,14.80
2022-07-29T04:17:18.842Z,14.56
2022-07-29T04:19:46.189Z,14.66
2022-07-29T04:22:13.181Z,15.50
2022-07-29T04:24:44.053Z,16.01
2022-07-29T04:27:11.274Z,16.73
2022-07-29T04:29:38.091Z,17.55
2022-07-29T04:32:24.203Z,18.17
2022-07-29T04:34:51.294Z,18.80
2022-07-29T04:37:18.282Z,19.30
2022-07-29T04:39:45.099Z,19.73
2022-07-29T04:42:12.122Z,20.17
2022-07-29T04:44:42.966Z,20.48
2022-07-29T04:47:10.458Z,20.77
2022-07-29T04:49:40.644Z,20.86
2022-07-29T04:52:08.022Z,21.19
2022-07-29T04:54:34.903Z,21.21
2022-07-29T04:57:01.822Z,20.59
2022-07-29T04:59:28.803Z,20.94
2022-07-29T05:01:55.826Z,20.26
2022-07-29T05:04:22.813Z,20.80
2022-07-29T05:06:49.867Z,21.21
2022-07-29T05:09:16.787Z,21.18
2022-07-29T05:11:43.644Z,21.19
2022-07-29T05:14:10.528Z,21.38
2022-07-29T05:16:37.352Z,21.58
2022-07-29T05:21:31.004Z,21.87
2022-07-29T05:23:57.906Z,22.02
2022-07-29T05:26:24.764Z,22.19
2022-07-29T05:28:51.774Z,21.71
2022-07-29T05:31:18.733Z,22.30
2022-07-29T05:33:45.778Z,22.21
2022-07-29T05:36:12.777Z,22.49
2022-07-29T05:38:39.744Z,22.19
2022-07-29T05:41:06.741Z,22.49
2022-07-29T05:43:33.854Z,22.79
2022-07-29T05:46:00.992Z,22.60
2022-07-29T05:48:28.321Z,22.85
2022-07-29T05:50:55.836Z,22.99
2022-07-29T05:53:22.969Z,23.38
2022-07-29T05:55:50.108Z,23.30
2022-07-29T05:58:17.005Z,23.41
2022-07-29T06:00:43.915Z,23.33
2022-07-29T06:03:10.841Z,23.36
2022-07-29T06:05:37.786Z,23.21
2022-07-29T06:08:06.976Z,23.26
2022-07-29T06:10:35.409Z,23.18
2022-07-29T06:13:02.505Z,23.54
2022-07-29T06:15:29.567Z,23.70
2022-07-29T06:17:59.378Z,23.95
2022-07-29T06:20:31.119Z,23.73
2022-07-29T06:22:58.609Z,23.96
2022-07-29T06:25:25.903Z,24.34
2022-07-29T06:27:59.172Z,24.42
2022-07-29T06:30:26.356Z,24.25
2022-07-29T06:32:53.626Z,24.35
2022-07-29T06:35:38.989Z,24.67
2022-07-29T06:38:29.864Z,24.77
2022-07-29T06:41:11.173Z,24.55
2022-07-29T06:43:45.601Z,24.75
2022-07-29T06:46:19.107Z,24.90
2022-07-29T06:48:46.554Z,25.46
2022-07-29T06:51:13.705Z,25.36
2022-07-29T06:53:40.749Z,25.63
2022-07-29T06:56:27.086Z,26.07
2022-07-29T06:58:53.961Z,25.96
2022-07-29T07:01:21.171Z,26.12
2022-07-29T07:03:48.827Z,26.79
2022-07-29T07:06:15.933Z,26.92
2022-07-29T07:08:43.686Z,26.61
2022-07-29T07:11:10.802Z,27.49
2022-07-29T07:13:37.725Z,27.49
2022-07-29T07:16:05.007Z,27.00
2022-07-29T07:18:32.281Z,26.71
2022-07-29T07:20:59.324Z,26.82
2022-07-29T07:23:26.224Z,27.00
2022-07-29T07:25:53.440Z,26.94
2022-07-29T07:28:24.716Z,26.17
2022-07-29T07:30:54.177Z,26.16
2022-07-29T07:33:21.115Z,25.70
2022-07-29T07:35:48.292Z,26.41
2022-07-29T07:38:15.223Z,27.09
2022-07-29T07:40:42.147Z,27.24
2022-07-29T07:43:09.208Z,27.56
2022-07-29T07:45:38.543Z,27.86
2022-07-29T07:48:06.207Z,27.42
2022-07-29T07:50:33.329Z,27.62
2022-07-29T07:53:03.301Z,27.38
2022-07-29T07:55:47.286Z,27.10
2022-07-29T07:58:17.374Z,26.88
2022-07-29T08:00:44.580Z,27.01
2022-07-29T08:03:16.788Z,27.76
2022-07-29T08:05:44.464Z,28.78
2022-07-29T08:08:11.393Z,28.88
2022-07-29T08:10:57.001Z,29.09
2022-07-29T08:13:26.468Z,29.32
2022-07-29T08:16:01.255Z,29.22
2022-07-29T08:18:29.956Z,29.47
2022-07-29T08:20:57.347Z,30.31
2022-07-29T08:23:25.417Z,30.39
2022-07-29T08:25:52.421Z,30.84
2022-07-29T08:28:25.768Z,29.33
2022-07-29T08:30:52.952Z,27.47
2022-07-29T08:33:19.904Z,26.10
2022-07-29T08:35:46.881Z,27.31
2022-07-29T08:38:13.985Z,28.68
2022-07-29T08:40:41.085Z,30.50
2022-07-29T08:43:08.643Z,31.50
2022-07-29T08:45:42.307Z,32.20
2022-07-29T08:48:14.800Z,32.04
2022-07-29T08:50:42.569Z,31.40
2022-07-29T08:53:14.968Z,32.09
2022-07-29T08:55:43.645Z,32.82
2022-07-29T08:58:10.833Z,33.13
2022-07-29T09:00:38.966Z,32.94
2022-07-29T09:03:07.823Z,32.69
2022-07-29T09:05:39.500Z,33.31
2022-07-29T09:08:08.063Z,33.32
2022-07-29T09:10:36.790Z,33.54
2022-07-29T09:13:04.041Z,34.05
2022-07-29T09:15:31.163Z,34.20
2022-07-29T09:17:59.434Z,32.71
2022-07-29T09:20:26.584Z,32.82
2022-07-29T09:22:54.726Z,32.82
2022-07-29T09:25:41.194Z,33.48
2022-07-29T09:28:09.084Z,33.73
2022-07-29T09:30:36.190Z,31.73
2022-07-29T09:33:04.014Z,31.10
2022-07-29T09:35:31.263Z,31.42
2022-07-29T09:37:58.345Z,31.59
2022-07-29T09:40:27.051Z,31.29
2022-07-29T09:42:56.629Z,31.28
2022-07-29T09:45:30.921Z,31.41
2022-07-29T09:48:01.382Z,31.59
2022-07-29T09:50:41.210Z,30.81
2022-07-29T09:53:10.605Z,30.74
2022-07-29T09:55:56.200Z,31.23
2022-07-29T09:58:23.857Z,31.42
2022-07-29T10:00:51.654Z,31.65
2022-07-29T10:03:18.983Z,30.64
2022-07-29T10:05:46.486Z,29.30
2022-07-29T10:08:13.826Z,29.06
2022-07-29T10:10:45.662Z,29.87
2022-07-29T10:13:16.206Z,30.57
2022-07-29T10:15:45.272Z,30.96
2022-07-29T10:18:13.022Z,30.56
2022-07-29T10:20:40.028Z,30.28
2022-07-29T10:23:06.911Z,30.28
2022-07-29T10:25:33.942Z,30.10
2022-07-29T10:28:00.780Z,29.85
2022-07-29T10:30:27.808Z,29.92
2022-07-29T10:33:25.296Z,30.14
2022-07-29T10:36:18.544Z,30.84
2022-07-29T10:39:07.338Z,31.37
2022-07-29T10:41:57.790Z,31.92
2022-07-29T10:44:26.093Z,31.62
2022-07-29T10:46:53.261Z,31.84
2022-07-29T10:49:25.109Z,32.09
2022-07-29T10:52:00.770Z,32.49
2022-07-29T10:54:44.175Z,32.59
2022-07-29T10:57:53.839Z,32.35
2022-07-29T11:00:27.065Z,32.09
2022-07-29T11:02:56.577Z,31.92
2022-07-29T11:05:24.903Z,31.83
2022-07-29T11:08:20.237Z,32.43
2022-07-29T11:11:06.650Z,32.13
2022-07-29T11:13:53.149Z,31.91
2022-07-29T11:16:25.103Z,32.05
2022-07-29T11:19:14.633Z,32.20
2022-07-29T11:21:55.321Z,32.69
2022-07-29T11:24:35.933Z,32.90
2022-07-29T11:27:13.506Z,32.48
2022-07-29T11:29:52.185Z,32.45
2022-07-29T11:32:24.169Z,31.65
2022-07-29T11:38:23.341Z,30.90
2022-07-29T11:41:25.463Z,32.15
2022-07-29T11:43:54.865Z,31.43
2022-07-29T11:46:47.562Z,31.55
2022-07-29T11:49:15.486Z,32.60
2022-07-29T11:51:48.173Z,32.34
2022-07-29T11:54:16.101Z,33.01
2022-07-29T11:56:44.903Z,32.71
2022-07-29T11:59:11.882Z,32.88
2022-07-29T12:02:02.418Z,33.10
2022-07-29T12:05:01.121Z,32.67
2022-07-29T12:07:03.897Z,31.73
2022-07-29T12:07:38.127Z,33.05
2022-07-29T12:10:06.307Z,32.98
2022-07-29T12:12:34.301Z,32.36
2022-07-29T12:15:15.973Z,31.62
2022-07-29T12:17:42.964Z,31.54
2022-07-29T12:20:09.964Z,31.75
2022-07-29T12:22:42.083Z,31.46
2022-07-29T12:28:04.721Z,32.02
2022-07-29T12:30:49.124Z,30.66
2022-07-29T12:33:24.883Z,30.65
2022-07-29T12:36:06.098Z,30.54
2022-07-29T12:38:35.835Z,30.21
2022-07-29T12:41:04.542Z,29.57
2022-07-29T12:43:31.644Z,29.04
2022-07-29T12:45:58.561Z,29.79
2022-07-29T12:48:44.123Z,30.77
2022-07-29T12:51:12.815Z,31.71
2022-07-29T12:53:39.895Z,31.59
2022-07-29T12:56:26.468Z,30.33
2022-07-29T12:58:53.925Z,29.74
2022-07-29T13:01:22.038Z,29.05
2022-07-29T13:04:05.138Z,28.99
2022-07-29T13:06:41.089Z,28.13
2022-07-29T13:09:18.933Z,27.11
2022-07-29T13:11:50.748Z,26.60
2022-07-29T13:14:36.845Z,26.03
2022-07-29T13:17:08.685Z,25.50
2022-07-29T13:19:52.044Z,25.48
2022-07-29T13:22:23.560Z,25.22
2022-07-29T13:25:07.523Z,24.70
2022-07-29T13:27:35.091Z,24.39
2022-07-29T13:30:03.065Z,24.26
2022-07-29T13:32:30.664Z,24.61
2022-07-29T13:34:58.280Z,24.88
2022-07-29T13:37:25.287Z,24.70
2022-07-29T13:39:53.544Z,24.41
2022-07-29T13:42:20.690Z,24.34
2022-07-29T13:44:49.716Z,23.78
2022-07-29T13:47:17.255Z,23.44
2022-07-29T13:49:44.202Z,22.91
2022-07-29T13:52:11.150Z,22.47
2022-07-29T13:54:42.403Z,22.44
2022-07-29T13:57:11.944Z,22.43
2022-07-29T13:59:40.221Z,22.54
2022-07-29T14:02:07.389Z,22.57
2022-07-29T14:04:34.650Z,22.68
2022-07-29T14:07:03.807Z,22.96
2022-07-29T14:09:41.079Z,23.41
2022-07-29T14:12:09.293Z,24.85
2022-07-29T14:14:37.634Z,25.96
2022-07-29T14:17:07.901Z,26.92
2022-07-29T14:19:39.311Z,27.85
2022-07-29T14:22:07.167Z,27.49
2022-07-29T14:24:37.107Z,27.96
2022-07-29T14:27:05.293Z,28.84
2022-07-29T14:29:36.878Z,28.07
2022-07-29T14:32:08.724Z,27.22
2022-07-29T14:34:36.768Z,26.23
2022-07-29T14:37:06.329Z,25.57
2022-07-29T14:39:33.592Z,25.17
2022-07-29T14:42:01.102Z,25.60
2022-07-29T14:44:32.338Z,26.00
2022-07-29T14:47:07.710Z,25.39
2022-07-29T14:49:35.659Z,24.88
2022-07-29T14:52:02.622Z,25.13
2022-07-29T14:54:29.471Z,25.50
2022-07-29T14:56:58.607Z,25.82
2022-07-29T14:59:26.379Z,26.10
2022-07-29T15:01:53.412Z,26.71
2022-07-29T15:04:20.343Z,26.83
2022-07-29T15:06:47.390Z,26.94
2022-07-29T15:09:14.247Z,26.88
2022-07-29T15:11:41.104Z,26.39
2022-07-29T15:14:08.065Z,25.80
2022-07-29T15:16:37.329Z,25.56
2022-07-29T15:19:05.167Z,25.05
2022-07-29T15:21:32.222Z,24.10
2022-07-29T15:23:59.107Z,23.72
2022-07-29T15:26:25.962Z,23.14
2022-07-29T15:28:52.824Z,22.72
2022-07-29T15:31:22.403Z,22.50
2022-07-29T15:33:49.244Z,22.15
2022-07-29T15:36:42.130Z,21.84
2022-07-29T15:39:02.984Z,21.53
2022-07-29T15:41:29.873Z,21.12
2022-07-29T15:43:56.883Z,20.84
2022-07-29T15:46:42.124Z,20.76
2022-07-29T15:49:09.452Z,20.72
2022-07-29T15:51:36.404Z,20.68
2022-07-29T15:54:04.090Z,20.70
2022-07-29T15:56:31.687Z,20.90
2022-07-29T15:58:58.751Z,20.97
2022-07-29T16:01:25.688Z,21.05
2022-07-29T16:03:52.981Z,21.12
2022-07-29T16:06:20.004Z,21.02
2022-07-29T16:08:46.849Z,21.07
2022-07-29T16:11:13.725Z,21.32
2022-07-29T16:13:40.629Z,21.25
2022-07-29T16:16:07.595Z,21.26
2022-07-29T16:18:34.918Z,21.34
2022-07-29T16:21:01.883Z,21.26
2022-07-29T16:23:28.904Z,21.30
2022-07-29T16:26:00.628Z,20.95
2022-07-29T16:28:31.268Z,20.82
2022-07-29T16:30:58.332Z,20.61
2022-07-29T16:33:25.208Z,20.38
2022-07-29T16:35:52.574Z,20.23
2022-07-29T16:38:19.508Z,20.10
2022-07-29T16:40:46.595Z,20.03
2022-07-29T16:43:13.810Z,19.87
2022-07-29T16:45:45.518Z,19.66
2022-07-29T16:48:17.310Z,19.51
2022-07-29T16:50:45.329Z,19.40
2022-07-29T16:53:12.352Z,19.21
2022-07-29T16:55:42.024Z,19.24
2022-07-29T16:58:10.213Z,19.13
2022-07-29T17:00:37.205Z,19.05
2022-07-29T17:03:05.498Z,19.01
2022-07-29T17:05:52.751Z,18.94
2022-07-29T17:08:20.226Z,18.90
2022-07-29T17:10:47.427Z,18.90
2022-07-29T17:13:14.727Z,18.82
2022-07-29T17:15:43.205Z,18.80
2022-07-29T17:18:12.478Z,18.82
2022-07-29T17:20:41.689Z,18.83
2022-07-29T17:23:08.545Z,18.80
2022-07-29T17:25:35.606Z,18.75
2022-07-29T17:28:02.512Z,18.87
2022-07-29T17:30:30.056Z,18.87
2022-07-29T17:32:56.978Z,18.86
2022-07-29T17:35:42.306Z,18.92
2022-07-29T17:38:09.276Z,18.84
2022-07-29T17:40:36.189Z,18.76
2022-07-29T17:43:04.792Z,18.71
2022-07-29T17:45:49.627Z,18.50
2022-07-29T17:48:18.222Z,18.39
2022-07-29T17:50:45.705Z,18.29
2022-07-29T17:53:16.258Z,18.20
2022-07-29T17:55:48.705Z,18.08
2022-07-29T17:58:15.946Z,17.91
2022-07-29T18:00:43.019Z,17.80
2022-07-29T18:03:10.076Z,17.70
2022-07-29T18:05:37.132Z,17.59
2022-07-29T18:08:04.152Z,17.54
2022-07-29T18:10:31.446Z,17.39
2022-07-29T18:12:58.398Z,17.24
2022-07-29T18:15:25.387Z,17.20
2022-07-29T18:17:57.506Z,17.05
2022-07-29T18:20:25.977Z,16.86
2022-07-29T18:22:53.054Z,16.82
2022-07-29T18:25:20.068Z,16.73
2022-07-29T18:27:46.987Z,16.74
2022-07-29T18:30:15.390Z,16.74
2022-07-29T18:32:54.323Z,16.68
2022-07-29T18:35:29.446Z,16.60
2022-07-29T18:38:01.134Z,16.59
2022-07-29T18:40:29.787Z,16.50
2022-07-29T18:42:56.724Z,16.43
2022-07-29T18:45:28.661Z,16.31
2022-07-29T18:47:56.729Z,16.19
2022-07-29T18:50:28.795Z,16.17
2022-07-29T18:52:58.882Z,16.03
2022-07-29T18:55:26.318Z,15.89
2022-07-29T18:57:56.592Z,15.77
2022-07-29T19:00:24.665Z,15.71
2022-07-29T19:02:52.733Z,15.64
2022-07-29T19:05:19.946Z,15.59
2022-07-29T19:07:47.060Z,15.50
2022-07-29T19:10:14.007Z,15.47
2022-07-29T19:12:41.046Z,15.44
2022-07-29T19:15:10.399Z,15.37
2022-07-29T19:17:38.008Z,15.26
2022-07-29T19:20:06.102Z,15.23
2022-07-29T19:22:34.478Z,15.12
2022-07-29T19:25:01.382Z,15.07
2022-07-29T19:27:28.289Z,14.91
2022-07-29T19:29:58.962Z,14.62
2022-07-29T19:32:26.534Z,14.48
2022-07-29T19:35:22.487Z,14.43
2022-07-29T19:37:49.412Z,14.43
2022-07-29T19:40:16.425Z,14.40
2022-07-29T19:42:43.764Z,14.45
2022-07-29T19:45:11.479Z,14.38
2022-07-29T19:47:38.345Z,14.41
2022-07-29T19:50:05.666Z,14.52
2022-07-29T19:52:33.130Z,14.64
2022-07-29T19:55:05.307Z,14.62
2022-07-29T19:57:40.872Z,14.69
2022-07-29T20:00:11.071Z,14.66
2022-07-29T20:02:39.367Z,14.63
2022-07-29T20:05:07.119Z,14.54
2022-07-29T20:07:34.310Z,14.35
2022-07-29T20:10:01.194Z,14.33
2022-07-29T20:12:28.085Z,14.30
2022-07-29T20:14:55.015Z,14.38
2022-07-29T20:17:24.737Z,14.37
2022-07-29T20:19:51.990Z,14.28
2022-07-29T20:22:21.095Z,14.32
2022-07-29T20:24:48.579Z,14.28
2022-07-29T20:27:15.463Z,14.20
2022-07-29T20:29:42.505Z,14.23
2022-07-29T20:32:09.385Z,14.14
2022-07-29T20:34:36.289Z,14.03
2022-07-29T20:37:03.684Z,13.94
2022-07-29T20:39:30.689Z,13.90
2022-07-29T20:41:57.610Z,13.95
2022-07-29T20:44:24.706Z,13.91
2022-07-29T20:46:51.617Z,13.78
2022-07-29T20:49:18.616Z,13.64
2022-07-29T20:51:45.661Z,13.56
2022-07-29T20:54:12.772Z,13.38
2022-07-29T20:56:40.005Z,13.24
2022-07-29T20:59:07.265Z,13.30
2022-07-29T21:01:34.310Z,13.25
2022-07-29T21:04:01.883Z,13.20
2022-07-29T21:06:29.348Z,13.20
2022-07-29T21:08:58.109Z,13.09
2022-07-29T21:11:43.364Z,12.98
2022-07-29T21:14:30.586Z,12.96
2022-07-29T21:16:57.791Z,12.93
2022-07-29T21:19:24.819Z,12.88
2022-07-29T21:21:52.067Z,12.93
2022-07-29T21:24:19.157Z,12.90
2022-07-29T21:26:54.422Z,12.80
2022-07-29T21:29:26.913Z,12.78
2022-07-29T21:31:53.806Z,12.79
2022-07-29T21:34:20.663Z,12.71
2022-07-29T21:36:48.760Z,12.66
2022-07-29T21:39:15.835Z,12.68
2022-07-29T21:41:42.687Z,12.60
2022-07-29T21:44:09.573Z,12.53
2022-07-29T21:46:36.865Z,12.45
2022-07-29T21:49:03.969Z,12.40
2022-07-29T21:51:30.947Z,12.35
2022-07-29T21:53:57.880Z,12.27
2022-07-29T21:56:27.567Z,12.26
2022-07-29T21:58:55.043Z,12.27
2022-07-29T22:01:21.946Z,12.23
2022-07-29T22:03:48.786Z,12.18
2022-07-29T22:06:17.853Z,12.09
2022-07-29T22:08:45.921Z,12.08
2022-07-29T22:11:13.399Z,12.13
2022-07-29T22:13:40.353Z,12.06
2022-07-29T22:16:07.744Z,12.04
2022-07-29T22:18:34.667Z,12.03
2022-07-29T22:21:01.588Z,11.97
2022-07-29T22:23:28.587Z,11.90
2022-07-29T22:25:55.723Z,11.86
2022-07-29T22:28:22.666Z,11.83
2022-07-29T22:30:49.615Z,11.76
2022-07-29T22:33:17.309Z,11.88
2022-07-29T22:35:48.626Z,11.92
2022-07-29T22:38:17.333Z,11.92
2022-07-29T22:40:44.209Z,11.94
2022-07-29T22:43:11.102Z,11.95
2022-07-29T22:45:38.053Z,11.96
2022-07-29T22:48:05.826Z,11.94
2022-07-29T22:50:32.923Z,11.94
2022-07-29T22:52:59.805Z,11.91
2022-07-29T22:55:26.674Z,11.94
2022-07-29T22:57:53.488Z,11.99
2022-07-29T23:00:20.562Z,12.03
2022-07-29T23:02:47.764Z,12.08
2022-07-29T23:05:16.069Z,12.09
2022-07-29T23:07:43.107Z,12.11
2022-07-29T23:10:10.273Z,12.06
2022-07-29T23:12:37.165Z,12.12
2022-07-29T23:15:07.889Z,12.08
2022-07-29T23:17:36.543Z,12.00
2022-07-29T23:20:06.846Z,11.97
2022-07-29T23:22:34.103Z,11.95
2022-07-29T23:25:01.012Z,11.94
2022-07-29T23:27:27.902Z,11.92
2022-07-29T23:29:54.953Z,11.89
2022-07-29T23:32:21.865Z,11.87
2022-07-29T23:34:48.870Z,11.84
2022-07-29T23:37:15.726Z,11.77
2022-07-29T23:39:42.553Z,11.77
2022-07-29T23:42:09.771Z,11.73
2022-07-29T23:44:36.603Z,11.71
2022-07-29T23:47:03.968Z,11.65
2022-07-29T23:49:31.109Z,11.68
2022-07-29T23:51:57.962Z,11.69
2022-07-29T23:54:24.846Z,11.65
2022-07-29T23:56:51.744Z,11.57
2022-07-29T23:59:18.581Z,11.53
